Time;durP1;ratioP1;P1;durP2;ratioP2;P2;SDS_P1;SDS_P2;PMS_P1;PMS_P2;Temp;Humidity;BMP_temperature;BMP_pressure;BME280_temperature;BME280_humidity;BME280_pressure;Samples;Min_cycle;Max_cycle;Signal;HPM_P1;HPM_P2
2023/08/12 00:00:17;;;;;;;15.80;5.80;;;;;;;;;;5029196;28;20049;-68
2023/08/12 00:02:45;;;;;;;13.00;5.45;;;;;;;;;;5074843;28;20061;-69
2023/08/12 00:05:12;;;;;;;12.43;5.65;;;;;;;;;;5053360;28;20059;-68
2023/08/12 00:07:42;;;;;;;10.15;5.53;;;;;;;;;;5041747;28;20072;-68
2023/08/12 00:10:13;;;;;;;11.75;5.57;;;;;;;;;;5052811;28;20186;-68
2023/08/12 00:12:40;;;;;;;12.05;5.50;;;;;;;;;;5027464;28;20084;-68
2023/08/12 00:15:10;;;;;;;14.15;5.55;;;;;;;;;;5022148;28;20056;-69
2023/08/12 00:17:41;;;;;;;11.85;5.38;;;;;;;;;;5011814;28;20056;-68
2023/08/12 00:20:10;;;;;;;13.57;5.57;;;;;;;;;;5040923;28;20057;-70
2023/08/12 00:22:37;;;;;;;14.25;6.57;;;;;;;;;;5022989;28;20057;-68
2023/08/12 00:25:07;;;;;;;13.10;5.35;;;;;;;;;;5022987;28;20064;-71
2023/08/12 00:27:34;;;;;;;13.00;5.38;;;;;;;;;;4984258;28;20057;-68
2023/08/12 00:30:00;;;;;;;10.85;5.38;;;;;;;;;;5041549;28;20065;-69
2023/08/12 00:32:27;;;;;;;13.13;5.70;;;;;;;;;;5021121;28;20041;-69
2023/08/12 00:34:54;;;;;;;11.13;5.53;;;;;;;;;;5025909;28;20048;-69
2023/08/12 00:37:21;;;;;;;16.73;5.90;;;;;;;;;;5019895;28;20060;-69
2023/08/12 00:39:47;;;;;;;10.90;5.63;;;;;;;;;;5022984;28;20085;-70
2023/08/12 00:42:17;;;;;;;12.77;5.78;;;;;;;;;;5019973;28;20052;-69
2023/08/12 00:44:47;;;;;;;12.02;5.45;;;;;;;;;;5023025;28;20064;-69
2023/08/12 00:47:16;;;;;;;12.98;5.60;;;;;;;;;;5009057;28;20076;-69
2023/08/12 00:49:45;;;;;;;15.48;5.85;;;;;;;;;;5038394;28;20052;-72
2023/08/12 00:52:15;;;;;;;14.38;5.40;;;;;;;;;;5043219;28;20148;-68
2023/08/12 00:54:43;;;;;;;12.68;5.75;;;;;;;;;;5028279;28;20100;-70
2023/08/12 00:57:10;;;;;;;13.95;5.85;;;;;;;;;;5002093;28;20128;-69
2023/08/12 00:59:41;;;;;;;14.07;5.80;;;;;;;;;;5024976;28;20057;-70
2023/08/12 01:02:09;;;;;;;16.92;5.93;;;;;;;;;;5038396;28;20049;-68
2023/08/12 01:04:38;;;;;;;12.30;5.90;;;;;;;;;;5040162;28;20064;-71
2023/08/12 01:07:10;;;;;;;12.82;5.97;;;;;;;;;;4997223;28;20074;-69
2023/08/12 01:09:36;;;;;;;15.68;5.80;;;;;;;;;;5020095;28;20052;-69
2023/08/12 01:12:13;;;;;;;15.55;6.72;;;;;;;;;;5032733;28;20057;-69
2023/08/12 01:14:47;;;;;;;11.93;5.50;;;;;;;;;;5019524;28;20054;-70
2023/08/12 01:17:15;;;;;;;15.75;5.60;;;;;;;;;;4989364;28;20061;-69
2023/08/12 01:19:44;;;;;;;11.50;5.90;;;;;;;;;;5019714;28;20052;-70
2023/08/12 01:22:13;;;;;;;13.20;5.82;;;;;;;;;;4999446;28;20048;-70
2023/08/12 01:24:43;;;;;;;10.65;5.50;;;;;;;;;;5023065;28;20100;-70
2023/08/12 01:27:11;;;;;;;13.13;6.20;;;;;;;;;;4984673;28;20065;-70
2023/08/12 01:29:42;;;;;;;12.40;6.35;;;;;;;;;;5020466;28;20123;-71
2023/08/12 01:32:14;;;;;;;21.25;6.35;;;;;;;;;;5018133;28;20057;-70
2023/08/12 01:34:47;;;;;;;12.20;6.13;;;;;;;;;;5019179;28;20144;-69
2023/08/12 01:37:26;;;;;;;15.27;6.40;;;;;;;;;;5014743;28;20114;-69
2023/08/12 01:39:56;;;;;;;14.20;6.18;;;;;;;;;;5059944;28;20124;-69
2023/08/12 01:42:24;;;;;;;15.20;8.52;;;;;;;;;;5035029;28;20045;-69
2023/08/12 01:44:51;;;;;;;21.80;8.67;;;;;;;;;;5042849;28;20101;-70
2023/08/12 01:47:19;;;;;;;16.08;7.25;;;;;;;;;;5019659;28;20308;-68
2023/08/12 01:49:45;;;;;;;17.50;7.20;;;;;;;;;;5059454;28;20110;-68
2023/08/12 01:52:12;;;;;;;19.63;7.10;;;;;;;;;;5040245;28;20086;-69
2023/08/12 01:54:39;;;;;;;15.85;6.53;;;;;;;;;;5058824;28;20058;-69
2023/08/12 01:57:08;;;;;;;13.52;6.88;;;;;;;;;;5046939;28;20056;-69
2023/08/12 01:59:34;;;;;;;17.70;7.43;;;;;;;;;;5038409;28;20055;-70
2023/08/12 02:02:01;;;;;;;16.70;7.10;;;;;;;;;;5019110;28;20062;-70
2023/08/12 02:04:28;;;;;;;14.25;7.50;;;;;;;;;;4965833;28;20083;-70
2023/08/12 02:07:00;;;;;;;30.73;16.00;;;;;;;;;;5033579;28;20083;-69
2023/08/12 02:09:27;;;;;;;23.95;11.23;;;;;;;;;;5061128;28;20073;-69
2023/08/12 02:11:53;;;;;;;22.77;9.80;;;;;;;;;;5028109;28;20141;-69
2023/08/12 02:14:22;;;;;;;16.52;7.13;;;;;;;;;;4943709;28;20077;-69
2023/08/12 02:16:51;;;;;;;16.17;7.55;;;;;;;;;;5078105;28;20044;-69
2023/08/12 02:19:25;;;;;;;18.40;8.20;;;;;;;;;;5042866;28;20068;-70
2023/08/12 02:21:52;;;;;;;14.48;7.53;;;;;;;;;;4992328;28;20119;-69
2023/08/12 02:24:18;;;;;;;18.45;7.82;;;;;;;;;;5011466;28;20061;-68
2023/08/12 02:26:45;;;;;;;14.77;7.53;;;;;;;;;;5014034;28;20146;-69
2023/08/12 02:29:12;;;;;;;18.08;7.53;;;;;;;;;;4958265;28;20071;-68
2023/08/12 02:31:40;;;;;;;13.55;8.32;;;;;;;;;;5025729;28;20054;-70
2023/08/12 02:36:47;;;;;;;16.10;7.82;;;;;;;;;;4958535;28;20054;-69
2023/08/12 02:39:14;;;;;;;17.45;7.65;;;;;;;;;;5023423;28;20150;-69
2023/08/12 02:41:41;;;;;;;17.23;7.32;;;;;;;;;;5027498;28;20055;-69
2023/08/12 02:44:15;;;;;;;15.07;8.05;;;;;;;;;;4961163;28;20063;-69
2023/08/12 02:46:43;;;;;;;14.35;7.85;;;;;;;;;;5035811;28;20157;-69
2023/08/12 02:49:10;;;;;;;19.63;8.13;;;;;;;;;;5025451;28;20120;-69
2023/08/12 02:51:36;;;;;;;19.30;8.02;;;;;;;;;;5024285;28;20065;-70
2023/08/12 02:54:07;;;;;;;16.58;8.32;;;;;;;;;;5013185;28;20095;-69
2023/08/12 02:56:33;;;;;;;20.77;8.60;;;;;;;;;;5008348;28;20051;-70
2023/08/12 02:59:05;;;;;;;14.95;8.02;;;;;;;;;;5025546;28;20116;-69
2023/08/12 03:01:32;;;;;;;17.63;8.10;;;;;;;;;;5043219;28;20070;-69
2023/08/12 03:04:00;;;;;;;19.08;8.23;;;;;;;;;;5037350;28;20055;-69
2023/08/12 03:06:27;;;;;;;18.92;8.43;;;;;;;;;;4950339;28;20058;-70
2023/08/12 03:08:53;;;;;;;17.67;7.75;;;;;;;;;;5040484;28;20063;-71
2023/08/12 03:11:20;;;;;;;17.35;8.20;;;;;;;;;;5046635;28;20171;-70
2023/08/12 03:13:47;;;;;;;16.73;8.05;;;;;;;;;;4994889;28;20061;-70
2023/08/12 03:16:14;;;;;;;21.98;9.20;;;;;;;;;;5031410;28;20128;-70
2023/08/12 03:18:45;;;;;;;15.30;8.20;;;;;;;;;;5041070;28;20059;-70
2023/08/12 03:21:16;;;;;;;19.80;9.10;;;;;;;;;;5024827;28;20054;-69
2023/08/12 03:23:43;;;;;;;15.77;8.40;;;;;;;;;;5024320;28;20063;-69
2023/08/12 03:26:11;;;;;;;18.38;8.40;;;;;;;;;;4980866;28;20083;-69
2023/08/12 03:28:37;;;;;;;;;;;;;;;;;;5022082;28;20061;-70
2023/08/12 03:31:04;;;;;;;19.63;8.48;;;;;;;;;;5024379;28;19968;-70
2023/08/12 03:33:32;;;;;;;24.38;8.52;;;;;;;;;;5023051;28;20159;-69
2023/08/12 03:35:58;;;;;;;18.77;8.70;;;;;;;;;;5019139;28;20141;-69
2023/08/12 03:38:27;;;;;;;17.52;9.15;;;;;;;;;;4948584;28;20170;-70
2023/08/12 03:40:53;;;;;;;19.23;8.10;;;;;;;;;;5026832;28;20086;-69
2023/08/12 03:43:20;;;;;;;16.30;8.35;;;;;;;;;;5023199;28;20065;-70
2023/08/12 03:45:47;;;;;;;18.45;9.00;;;;;;;;;;5021782;28;20047;-70
2023/08/12 03:48:14;;;;;;;16.67;8.45;;;;;;;;;;5024478;28;20128;-70
2023/08/12 03:50:46;;;;;;;21.92;8.73;;;;;;;;;;5028333;28;20059;-70
2023/08/12 03:53:17;;;;;;;16.83;8.40;;;;;;;;;;5039929;28;20088;-70
2023/08/12 03:55:45;;;;;;;20.33;8.35;;;;;;;;;;5042591;28;20057;-70
2023/08/12 03:58:12;;;;;;;15.40;7.72;;;;;;;;;;5038832;28;20058;-71
2023/08/12 04:00:42;;;;;;;16.85;8.70;;;;;;;;;;5044623;28;20049;-71
2023/08/12 04:03:31;;;;;;;18.73;8.32;;;;;;;;;;5045762;28;20115;-70
2023/08/12 04:06:05;;;;;;;16.75;8.27;;;;;;;;;;5000438;28;20056;-71
2023/08/12 04:08:33;;;;;;;20.13;8.43;;;;;;;;;;5032273;28;20897;-70
2023/08/12 04:11:01;;;;;;;23.35;8.85;;;;;;;;;;5028083;28;20054;-70
2023/08/12 04:13:29;;;;;;;15.82;7.88;;;;;;;;;;5047709;28;20054;-70
2023/08/12 04:15:56;;;;;;;17.13;7.95;;;;;;;;;;4978766;28;20047;-71
2023/08/12 04:18:23;;;;;;;18.17;8.07;;;;;;;;;;4973602;28;20050;-71
2023/08/12 04:20:50;;;;;;;18.60;8.30;;;;;;;;;;5048744;28;20050;-70
2023/08/12 04:23:18;;;;;;;17.10;7.82;;;;;;;;;;5049098;28;20107;-70
2023/08/12 04:25:45;;;;;;;15.57;8.25;;;;;;;;;;5032593;28;20089;-70
2023/08/12 04:28:13;;;;;;;20.02;8.18;;;;;;;;;;5040364;28;20154;-71
2023/08/12 04:30:42;;;;;;;18.10;8.45;;;;;;;;;;5048176;28;20111;-71
2023/08/12 04:33:09;;;;;;;16.92;7.88;;;;;;;;;;5047914;28;20085;-69
2023/08/12 04:35:37;;;;;;;20.70;8.38;;;;;;;;;;5016110;28;20055;-69
2023/08/12 04:38:04;;;;;;;;;;;;;;;;;;5046088;28;20093;-70
2023/08/12 04:40:32;;;;;;;19.48;8.27;;;;;;;;;;5040716;28;20752;-69
2023/08/12 04:42:59;;;;;;;19.60;8.60;;;;;;;;;;5049552;28;20066;-69
2023/08/12 04:45:28;;;;;;;19.13;8.57;;;;;;;;;;5026895;28;20059;-70
2023/08/12 04:47:54;;;;;;;;;;;;;;;;;;5081189;28;20084;-69
2023/08/12 04:50:21;;;;;;;16.50;7.95;;;;;;;;;;4973717;28;20014;-69
2023/08/12 04:52:48;;;;;;;16.80;8.25;;;;;;;;;;5040489;28;20079;-69
2023/08/12 04:55:14;;;;;;;18.73;8.32;;;;;;;;;;5021018;28;20058;-69
2023/08/12 04:57:41;;;;;;;18.25;8.27;;;;;;;;;;5026518;28;20248;-69
2023/08/12 05:00:10;;;;;;;16.92;8.32;;;;;;;;;;5023268;28;20096;-69
2023/08/12 05:02:39;;;;;;;19.25;8.45;;;;;;;;;;5022646;28;20070;-69
2023/08/12 05:05:08;;;;;;;;;;;;;;;;;;4995875;28;20062;-69
2023/08/12 05:07:35;;;;;;;17.25;7.47;;;;;;;;;;5034782;28;19926;-69
2023/08/12 05:10:02;;;;;;;15.18;8.15;;;;;;;;;;5025189;28;20117;-69
2023/08/12 05:12:30;;;;;;;17.08;7.80;;;;;;;;;;5011676;28;20176;-69
2023/08/12 05:14:57;;;;;;;;;;;;;;;;;;4958564;28;20083;-70
2023/08/12 05:17:23;;;;;;;16.80;7.05;;;;;;;;;;4959854;28;20012;-69
2023/08/12 05:19:52;;;;;;;17.83;7.15;;;;;;;;;;5027367;28;20054;-70
2023/08/12 05:22:18;;;;;;;16.45;7.28;;;;;;;;;;5023726;28;20061;-71
2023/08/12 05:24:45;;;;;;;16.73;8.00;;;;;;;;;;5015177;28;20058;-70
2023/08/12 05:27:14;;;;;;;21.48;7.63;;;;;;;;;;4962106;28;20054;-70
2023/08/12 05:29:41;;;;;;;14.55;7.10;;;;;;;;;;5026825;28;20066;-69
2023/08/12 05:32:08;;;;;;;16.20;7.50;;;;;;;;;;5023263;28;20051;-67
2023/08/12 05:34:35;;;;;;;15.68;6.80;;;;;;;;;;4965189;28;20090;-65
2023/08/12 05:37:03;;;;;;;16.98;6.93;;;;;;;;;;5020945;28;20055;-65
2023/08/12 05:39:29;;;;;;;15.30;7.22;;;;;;;;;;4958972;28;20059;-64
2023/08/12 05:41:56;;;;;;;14.43;6.70;;;;;;;;;;5025767;28;20058;-63
2023/08/12 05:44:22;;;;;;;15.30;6.35;;;;;;;;;;4947072;28;20277;-62
2023/08/12 05:46:49;;;;;;;12.57;7.10;;;;;;;;;;4959831;28;20173;-63
2023/08/12 05:49:16;;;;;;;13.10;6.80;;;;;;;;;;4960024;28;20058;-63
2023/08/12 05:51:43;;;;;;;17.95;6.35;;;;;;;;;;4957127;28;20066;-64
2023/08/12 05:54:11;;;;;;;15.45;6.70;;;;;;;;;;4943444;28;20140;-64
2023/08/12 05:56:38;;;;;;;18.63;6.20;;;;;;;;;;4989308;28;20059;-63
2023/08/12 05:59:05;;;;;;;13.82;6.35;;;;;;;;;;4959775;28;20108;-63
2023/08/12 06:01:32;;;;;;;13.18;5.80;;;;;;;;;;4995791;28;20075;-63
2023/08/12 06:03:59;;;;;;;14.77;6.47;;;;;;;;;;5059966;28;20056;-64
2023/08/12 06:06:25;;;;;;;12.70;5.70;;;;;;;;;;5012994;28;20068;-63
2023/08/12 06:08:52;;;;;;;15.93;5.97;;;;;;;;;;5079420;28;20127;-62
2023/08/12 06:11:20;;;;;;;12.15;5.78;;;;;;;;;;5058721;28;20052;-62
2023/08/12 06:13:47;;;;;;;12.52;5.32;;;;;;;;;;5059777;28;20052;-63
2023/08/12 06:16:14;;;;;;;12.60;5.75;;;;;;;;;;5043289;28;20097;-63
2023/08/12 06:18:41;;;;;;;10.77;5.45;;;;;;;;;;5060070;28;20056;-63
2023/08/12 06:21:08;;;;;;;17.63;5.57;;;;;;;;;;5080725;28;20070;-63
2023/08/12 06:23:34;;;;;;;10.50;5.13;;;;;;;;;;5079755;28;20059;-62
2023/08/12 06:26:01;;;;;;;8.77;4.50;;;;;;;;;;5056819;28;20055;-63
2023/08/12 06:28:29;;;;;;;12.35;5.45;;;;;;;;;;5071706;28;20056;-64
2023/08/12 06:30:56;;;;;;;9.65;4.18;;;;;;;;;;5062170;28;20075;-62
2023/08/12 06:33:23;;;;;;;7.63;3.88;;;;;;;;;;5061775;28;20056;-62
2023/08/12 06:35:51;;;;;;;8.13;3.85;;;;;;;;;;5068207;28;20047;-64
2023/08/12 06:38:19;;;;;;;10.02;4.05;;;;;;;;;;5056080;28;20052;-62
2023/08/12 06:40:48;;;;;;;9.25;4.10;;;;;;;;;;5079690;28;20071;-62
2023/08/12 06:43:15;;;;;;;10.93;3.92;;;;;;;;;;5060606;28;20143;-62
2023/08/12 06:45:43;;;;;;;11.80;4.05;;;;;;;;;;5075083;28;20051;-61
2023/08/12 06:48:09;;;;;;;12.25;3.90;;;;;;;;;;5058559;28;20145;-62
2023/08/12 06:50:36;;;;;;;12.60;4.20;;;;;;;;;;5076365;28;20055;-62
2023/08/12 06:53:03;;;;;;;12.82;3.60;;;;;;;;;;5051845;28;20071;-63
2023/08/12 06:55:29;;;;;;;7.47;3.38;;;;;;;;;;5036873;28;20118;-64
2023/08/12 06:57:56;;;;;;;9.48;4.13;;;;;;;;;;5059897;28;20078;-65
2023/08/12 07:00:23;;;;;;;7.75;3.40;;;;;;;;;;5053923;28;20064;-64
2023/08/12 07:02:51;;;;;;;9.85;3.88;;;;;;;;;;5027583;28;20149;-63
2023/08/12 07:05:18;;;;;;;7.70;3.75;;;;;;;;;;4998677;28;20053;-64
2023/08/12 07:07:44;;;;;;;8.43;3.92;;;;;;;;;;5004457;28;20146;-65
2023/08/12 07:10:12;;;;;;;8.13;3.80;;;;;;;;;;5003765;28;20070;-65
2023/08/12 07:12:38;;;;;;;8.82;3.80;;;;;;;;;;5015339;28;20055;-64
2023/08/12 07:15:06;;;;;;;8.75;3.95;;;;;;;;;;4955488;28;20157;-65
2023/08/12 07:17:33;;;;;;;9.20;3.88;;;;;;;;;;5004105;28;20063;-67
2023/08/12 07:20:02;;;;;;;9.05;3.63;;;;;;;;;;4940423;28;20070;-67
2023/08/12 07:22:29;;;;;;;8.52;4.05;;;;;;;;;;4998485;28;20055;-63
2023/08/12 07:24:55;;;;;;;7.45;3.67;;;;;;;;;;5002032;28;20094;-64
2023/08/12 07:27:22;;;;;;;8.15;4.05;;;;;;;;;;4944131;28;20087;-64
2023/08/12 07:29:50;;;;;;;13.30;4.07;;;;;;;;;;5007627;28;20059;-63
2023/08/12 07:32:17;;;;;;;10.23;4.13;;;;;;;;;;5000795;28;20059;-63
2023/08/12 07:34:44;;;;;;;7.90;3.67;;;;;;;;;;4938669;28;20059;-63
2023/08/12 07:37:12;;;;;;;7.78;3.97;;;;;;;;;;5009084;28;20059;-65
2023/08/12 07:39:40;;;;;;;9.48;3.90;;;;;;;;;;5007429;28;20059;-64
2023/08/12 07:42:10;;;;;;;;;;;;;;;;;;4985109;28;20040;-63
2023/08/12 07:44:37;;;;;;;8.02;3.40;;;;;;;;;;5009394;28;19925;-65
2023/08/12 07:47:04;;;;;;;6.53;3.10;;;;;;;;;;5030704;28;20065;-66
2023/08/12 07:49:33;;;;;;;6.40;3.22;;;;;;;;;;5017226;28;20072;-66
2023/08/12 07:52:02;;;;;;;6.22;2.83;;;;;;;;;;5020324;28;20053;-67
2023/08/12 07:54:32;;;;;;;4.20;2.50;;;;;;;;;;4999630;28;20064;-66
2023/08/12 07:57:01;;;;;;;7.18;2.25;;;;;;;;;;5024760;28;20057;-66
2023/08/12 07:59:30;;;;;;;4.75;2.38;;;;;;;;;;5021940;28;20048;-65
2023/08/12 08:01:57;;;;;;;3.40;1.80;;;;;;;;;;5032268;28;20076;-66
2023/08/12 08:04:24;;;;;;;7.88;2.45;;;;;;;;;;5038386;28;20053;-64
2023/08/12 08:06:50;;;;;;;5.30;2.28;;;;;;;;;;5043189;28;20084;-65
2023/08/12 08:09:17;;;;;;;5.97;2.58;;;;;;;;;;5042209;28;20049;-65
2023/08/12 08:11:45;;;;;;;4.20;2.30;;;;;;;;;;5026094;28;20056;-65
2023/08/12 08:14:12;;;;;;;3.97;2.00;;;;;;;;;;5043134;28;20072;-67
2023/08/12 08:16:41;;;;;;;5.75;2.67;;;;;;;;;;5028971;28;20052;-64
2023/08/12 08:19:09;;;;;;;5.82;1.90;;;;;;;;;;5061307;28;20072;-65
2023/08/12 08:21:36;;;;;;;4.57;1.85;;;;;;;;;;5063593;28;20056;-64
2023/08/12 08:24:05;;;;;;;5.95;1.80;;;;;;;;;;5021170;28;20142;-66
2023/08/12 08:26:32;;;;;;;3.42;1.60;;;;;;;;;;5058366;28;20053;-65
2023/08/12 08:29:00;;;;;;;2.83;1.52;;;;;;;;;;5044812;28;20056;-65
2023/08/12 08:31:27;;;;;;;3.95;1.80;;;;;;;;;;5062521;28;20125;-65
2023/08/12 08:33:54;;;;;;;5.97;2.90;;;;;;;;;;5042009;28;20056;-65
2023/08/12 08:36:20;;;;;;;13.93;6.63;;;;;;;;;;5010317;28;20062;-64
2023/08/12 08:38:50;;;;;;;8.65;3.70;;;;;;;;;;5045333;28;20144;-65
2023/08/12 08:41:18;;;;;;;2.40;1.58;;;;;;;;;;5059127;28;20063;-65
2023/08/12 08:43:48;;;;;;;3.35;1.65;;;;;;;;;;5061472;28;20052;-65
2023/08/12 08:46:17;;;;;;;5.07;1.90;;;;;;;;;;5029105;28;20060;-64
2023/08/12 08:48:44;;;;;;;4.85;1.83;;;;;;;;;;5045800;28;20060;-66
2023/08/12 08:51:12;;;;;;;3.67;1.88;;;;;;;;;;5043134;28;20069;-65
2023/08/12 08:53:39;;;;;;;3.50;1.40;;;;;;;;;;5042135;28;20052;-65
2023/08/12 08:56:07;;;;;;;2.00;1.33;;;;;;;;;;5037926;28;20151;-65
2023/08/12 08:58:34;;;;;;;2.23;1.37;;;;;;;;;;5040115;28;20124;-64
2023/08/12 09:01:01;;;;;;;1.70;1.30;;;;;;;;;;5055933;28;20103;-65
2023/08/12 09:03:30;;;;;;;1.67;1.10;;;;;;;;;;5043230;28;20064;-65
2023/08/12 09:05:57;;;;;;;3.10;1.10;;;;;;;;;;5029199;28;20123;-64
2023/08/12 09:08:25;;;;;;;1.80;1.00;;;;;;;;;;5060585;28;20062;-64
2023/08/12 09:10:52;;;;;;;0.88;0.70;;;;;;;;;;5040754;28;20063;-64
2023/08/12 09:13:19;;;;;;;0.85;0.60;;;;;;;;;;5043822;28;20088;-65
2023/08/12 09:15:45;;;;;;;0.80;0.80;;;;;;;;;;5046169;28;20100;-64
2023/08/12 09:18:12;;;;;;;7.45;3.53;;;;;;;;;;5054087;28;20064;-66
2023/08/12 09:20:43;;;;;;;1.95;0.75;;;;;;;;;;5053790;28;20293;-65
2023/08/12 09:23:10;;;;;;;1.33;0.80;;;;;;;;;;5041267;28;20049;-64
2023/08/12 09:25:43;;;;;;;0.70;0.70;;;;;;;;;;4998638;28;20142;-65
2023/08/12 09:28:13;;;;;;;1.10;0.70;;;;;;;;;;5036728;28;20052;-66
2023/08/12 09:30:40;;;;;;;0.73;0.73;;;;;;;;;;5039256;28;20064;-66
2023/08/12 09:33:09;;;;;;;1.27;0.80;;;;;;;;;;5061938;28;20064;-66
2023/08/12 09:35:37;;;;;;;0.90;0.80;;;;;;;;;;5038325;28;20045;-67
2023/08/12 09:38:12;;;;;;;1.50;0.90;;;;;;;;;;5042197;28;20149;-66
2023/08/12 09:40:40;;;;;;;0.68;0.60;;;;;;;;;;5060782;28;20210;-66
2023/08/12 09:43:07;;;;;;;1.38;0.70;;;;;;;;;;5046373;28;20052;-65
2023/08/12 09:45:35;;;;;;;2.30;0.85;;;;;;;;;;5048953;28;20048;-67
2023/08/12 09:48:05;;;;;;;2.08;0.70;;;;;;;;;;5047010;28;20052;-67
2023/08/12 09:50:32;;;;;;;1.15;0.70;;;;;;;;;;5041415;28;20131;-67
2023/08/12 09:52:59;;;;;;;1.27;0.70;;;;;;;;;;5043000;28;20097;-67
2023/08/12 09:55:29;;;;;;;0.50;0.50;;;;;;;;;;5043573;28;20147;-67
2023/08/12 09:57:57;;;;;;;0.50;0.47;;;;;;;;;;5048833;28;20056;-68
2023/08/12 10:00:25;;;;;;;2.92;1.40;;;;;;;;;;5068013;28;20345;-68
2023/08/12 10:02:54;;;;;;;6.50;2.33;;;;;;;;;;5058808;28;20147;-68
2023/08/12 10:05:25;;;;;;;1.58;1.10;;;;;;;;;;5035050;28;20064;-68
2023/08/12 10:07:55;;;;;;;1.25;0.70;;;;;;;;;;5042282;28;20126;-67
2023/08/12 10:10:23;;;;;;;6.75;1.30;;;;;;;;;;5034627;28;20055;-68
2023/08/12 10:12:51;;;;;;;6.13;1.38;;;;;;;;;;5047307;28;20060;-66
2023/08/12 10:15:18;;;;;;;;;;;;;;;;;;5029086;28;20103;-65
2023/08/12 10:17:46;;;;;;;3.72;1.10;;;;;;;;;;5041608;28;19964;-66
2023/08/12 10:20:15;;;;;;;7.20;1.30;;;;;;;;;;5046512;28;20064;-66
2023/08/12 10:22:44;;;;;;;4.35;1.50;;;;;;;;;;5058728;28;20368;-65
2023/08/12 10:25:14;;;;;;;3.40;1.13;;;;;;;;;;5037201;28;20067;-66
2023/08/12 10:27:41;;;;;;;4.65;1.40;;;;;;;;;;5040321;28;20056;-67
2023/08/12 10:30:12;;;;;;;4.97;1.20;;;;;;;;;;5037693;28;20052;-66
2023/08/12 10:32:40;;;;;;;6.13;1.40;;;;;;;;;;5039599;28;20087;-65
2023/08/12 10:35:12;;;;;;;4.55;1.50;;;;;;;;;;5052533;28;20112;-65
2023/08/12 10:37:39;;;;;;;4.72;1.48;;;;;;;;;;5044347;28;20052;-66
2023/08/12 10:40:22;;;;;;;5.63;1.30;;;;;;;;;;5038951;28;20052;-66
2023/08/12 10:42:49;;;;;;;2.97;1.35;;;;;;;;;;5060085;28;20056;-66
2023/08/12 10:45:22;;;;;;;6.45;1.38;;;;;;;;;;5021880;28;20057;-66
2023/08/12 10:47:53;;;;;;;4.50;1.40;;;;;;;;;;5043965;28;20067;-66
2023/08/12 10:50:20;;;;;;;4.97;1.15;;;;;;;;;;5033581;28;20056;-66
2023/08/12 10:53:25;;;;;;;4.00;1.10;;;;;;;;;;5047513;28;20067;-65
2023/08/12 10:56:01;;;;;;;6.72;1.90;;;;;;;;;;4994880;28;20081;-68
2023/08/12 10:58:35;;;;;;;7.25;1.60;;;;;;;;;;5053417;28;20036;-68
2023/08/12 11:01:14;;;;;;;2.92;1.13;;;;;;;;;;5045264;28;20052;-68
2023/08/12 11:03:44;;;;;;;8.05;1.83;;;;;;;;;;5037904;28;20057;-67
2023/08/12 11:06:22;;;;;;;27.92;11.00;;;;;;;;;;5010515;28;20045;-67
2023/08/12 11:08:53;;;;;;;8.32;1.90;;;;;;;;;;5040972;28;20053;-66
2023/08/12 11:11:24;;;;;;;7.63;2.58;;;;;;;;;;5035637;28;20052;-67
2023/08/12 11:13:59;;;;;;;5.05;1.70;;;;;;;;;;5021668;28;20163;-69
2023/08/12 11:17:12;;;;;;;10.55;2.70;;;;;;;;;;5041983;28;20048;-69
2023/08/12 11:20:00;;;;;;;8.13;1.67;;;;;;;;;;5040554;28;20056;-68
2023/08/12 11:22:27;;;;;;;7.30;1.10;;;;;;;;;;5051441;28;20133;-66
2023/08/12 11:24:55;;;;;;;7.38;1.40;;;;;;;;;;4987467;28;20082;-65
2023/08/12 11:27:22;;;;;;;;;;;;;;;;;;5002426;28;20063;-66
2023/08/12 11:29:52;;;;;;;7.88;1.48;;;;;;;;;;5041915;28;20027;-66
2023/08/12 11:32:24;;;;;;;8.57;3.35;;;;;;;;;;5036728;28;20175;-66
2023/08/12 11:34:53;;;;;;;7.88;1.73;;;;;;;;;;5011020;28;20096;-67
2023/08/12 11:37:22;;;;;;;9.93;1.52;;;;;;;;;;5044509;28;20107;-67
2023/08/12 11:39:51;;;;;;;5.97;1.40;;;;;;;;;;5040270;28;20063;-66
2023/08/12 11:42:20;;;;;;;6.45;1.63;;;;;;;;;;5054951;28;20092;-66
2023/08/12 11:44:47;;;;;;;5.65;1.48;;;;;;;;;;4986739;28;20056;-67
2023/08/12 11:47:26;;;;;;;7.63;2.60;;;;;;;;;;5046478;28;20052;-68
2023/08/12 11:49:57;;;;;;;3.97;1.25;;;;;;;;;;5041928;28;20075;-68
2023/08/12 11:52:25;;;;;;;6.70;1.80;;;;;;;;;;5044453;28;20117;-67
2023/08/12 11:54:52;;;;;;;4.82;1.90;;;;;;;;;;5014734;28;20061;-66
2023/08/12 11:57:23;;;;;;;7.97;1.60;;;;;;;;;;5020766;28;20052;-67
2023/08/12 11:59:50;;;;;;;6.03;1.50;;;;;;;;;;5039453;28;20056;-67
2023/08/12 12:02:17;;;;;;;7.88;1.90;;;;;;;;;;5013136;28;20063;-68
2023/08/12 12:04:44;;;;;;;6.00;1.65;;;;;;;;;;5003203;28;20109;-67
2023/08/12 12:07:23;;;;;;;5.35;1.42;;;;;;;;;;5021066;28;20063;-67
2023/08/12 12:09:52;;;;;;;6.20;1.83;;;;;;;;;;5024301;28;20062;-66
2023/08/12 12:12:19;;;;;;;7.95;1.65;;;;;;;;;;4963681;28;20062;-66
2023/08/12 12:14:48;;;;;;;4.97;1.65;;;;;;;;;;4981260;28;20046;-65
2023/08/12 12:17:16;;;;;;;5.78;1.88;;;;;;;;;;5007310;28;20058;-67
2023/08/12 12:19:42;;;;;;;4.45;1.45;;;;;;;;;;4963620;28;20155;-67
2023/08/12 12:22:09;;;;;;;5.43;1.92;;;;;;;;;;5026722;28;20065;-66
2023/08/12 12:24:47;;;;;;;16.02;6.82;;;;;;;;;;4944726;28;20082;-66
2023/08/12 12:27:14;;;;;;;6.10;2.03;;;;;;;;;;4959013;28;20097;-66
2023/08/12 12:29:42;;;;;;;5.13;1.52;;;;;;;;;;5024984;28;20157;-66
2023/08/12 12:32:09;;;;;;;6.55;1.52;;;;;;;;;;5025534;28;20245;-66
2023/08/12 12:34:40;;;;;;;5.75;1.33;;;;;;;;;;4960574;28;20059;-65
2023/08/12 12:37:07;;;;;;;8.00;1.33;;;;;;;;;;4949447;28;20146;-68
2023/08/12 12:39:34;;;;;;;3.42;1.05;;;;;;;;;;5025723;28;20059;-65
2023/08/12 12:42:03;;;;;;;6.15;1.48;;;;;;;;;;5025841;28;20110;-66
2023/08/12 12:44:32;;;;;;;9.05;1.98;;;;;;;;;;5017679;28;20298;-65
2023/08/12 12:46:59;;;;;;;6.55;1.05;;;;;;;;;;4957633;28;20070;-66
2023/08/12 12:49:29;;;;;;;27.27;15.77;;;;;;;;;;5025130;28;20051;-66
2023/08/12 12:52:01;;;;;;;11.45;2.97;;;;;;;;;;5029575;28;20058;-66
2023/08/12 12:54:29;;;;;;;6.88;2.47;;;;;;;;;;4950351;28;20239;-66
2023/08/12 12:56:56;;;;;;;;;;;;;;;;;;5020811;28;20052;-66
2023/08/12 12:59:26;;;;;;;8.70;1.52;;;;;;;;;;5024818;28;19926;-66
2023/08/12 13:01:53;;;;;;;5.28;1.27;;;;;;;;;;5038634;28;20064;-66
2023/08/12 13:04:23;;;;;;;8.75;1.70;;;;;;;;;;5032769;28;20060;-65
2023/08/12 13:06:53;;;;;;;7.82;1.35;;;;;;;;;;5028775;28;20056;-66
2023/08/12 13:09:20;;;;;;;5.43;1.30;;;;;;;;;;5041562;28;20065;-66
2023/08/12 13:11:46;;;;;;;5.22;1.13;;;;;;;;;;5059105;28;20056;-65
2023/08/12 13:14:16;;;;;;;7.65;1.52;;;;;;;;;;5036792;28;20160;-67
2023/08/12 13:16:46;;;;;;;7.68;1.67;;;;;;;;;;5022900;28;20053;-65
2023/08/12 13:19:13;;;;;;;5.93;1.38;;;;;;;;;;5060397;28;20067;-66
2023/08/12 13:21:44;;;;;;;6.82;1.48;;;;;;;;;;5042243;28;20152;-66
2023/08/12 13:24:15;;;;;;;4.03;0.88;;;;;;;;;;5055986;28;20060;-66
2023/08/12 13:26:46;;;;;;;10.18;1.42;;;;;;;;;;5020676;28;20069;-67
2023/08/12 13:29:12;;;;;;;6.75;1.30;;;;;;;;;;5022947;28;20060;-67
2023/08/12 13:31:42;;;;;;;5.38;1.02;;;;;;;;;;5055014;28;20059;-68
2023/08/12 13:34:12;;;;;;;6.20;2.38;;;;;;;;;;5055824;28;20056;-68
2023/08/12 13:36:42;;;;;;;7.93;1.55;;;;;;;;;;5045910;28;20088;-69
2023/08/12 13:39:08;;;;;;;9.50;1.30;;;;;;;;;;5040776;28;20056;-68
2023/08/12 13:41:37;;;;;;;5.47;1.40;;;;;;;;;;5061350;28;20059;-67
2023/08/12 13:44:11;;;;;;;5.60;1.20;;;;;;;;;;5059931;28;20079;-69
2023/08/12 13:46:39;;;;;;;5.13;1.38;;;;;;;;;;5041431;28;20060;-68
2023/08/12 13:49:11;;;;;;;2.65;0.98;;;;;;;;;;5044414;28;20052;-69
2023/08/12 13:55:11;;;;;;;4.78;1.27;;;;;;;;;;5035203;28;20095;-69
2023/08/12 13:57:38;;;;;;;11.02;1.98;;;;;;;;;;5038917;28;20056;-67
2023/08/12 14:00:16;;;;;;;10.50;1.63;;;;;;;;;;5045754;28;20121;-67
2023/08/12 14:02:42;;;;;;;;;;;;;;;;;;5048361;28;20054;-67
2023/08/12 14:05:11;;;;;;;17.40;6.13;;;;;;;;;;4951044;28;19937;-67
2023/08/12 14:07:38;;;;;;;5.90;2.13;;;;;;;;;;4960604;28;20055;-67
2023/08/12 14:10:17;;;;;;;6.95;1.83;;;;;;;;;;5044964;28;20055;-67
2023/08/12 14:12:48;;;;;;;6.30;1.38;;;;;;;;;;4975683;28;20055;-67
2023/08/12 14:15:20;;;;;;;6.03;1.20;;;;;;;;;;5018349;28;20060;-66
2023/08/12 14:17:52;;;;;;;5.97;1.50;;;;;;;;;;5020746;28;20140;-67
2023/08/12 14:20:21;;;;;;;9.57;1.63;;;;;;;;;;5023402;28;20146;-66
2023/08/12 14:22:50;;;;;;;11.75;2.25;;;;;;;;;;4960783;28;20165;-67
2023/08/12 14:25:19;;;;;;;9.73;1.77;;;;;;;;;;4941079;28;20055;-66
2023/08/12 14:30:47;;;;;;;8.07;1.40;;;;;;;;;;5024173;28;20051;-65
2023/08/12 14:33:14;;;;;;;5.93;1.35;;;;;;;;;;5032186;28;20051;-66
2023/08/12 14:35:51;;;;;;;12.00;1.60;;;;;;;;;;5021740;28;20148;-67
2023/08/12 14:38:29;;;;;;;7.03;1.20;;;;;;;;;;5008269;28;20055;-67
2023/08/12 14:41:03;;;;;;;5.03;1.20;;;;;;;;;;4964511;28;20051;-68
2023/08/12 14:43:44;;;;;;;9.65;1.30;;;;;;;;;;5030174;28;20066;-68
2023/08/12 14:46:22;;;;;;;6.47;1.38;;;;;;;;;;4941791;28;20125;-67
2023/08/12 14:48:50;;;;;;;11.95;1.45;;;;;;;;;;5019543;28;20081;-66
2023/08/12 14:51:20;;;;;;;8.32;1.50;;;;;;;;;;5028928;28;20059;-66
2023/08/12 14:53:48;;;;;;;6.45;1.50;;;;;;;;;;5028942;28;20062;-66
2023/08/12 14:56:25;;;;;;;;;;;;;;;;;;4955966;28;20126;-65
2023/08/12 15:02:14;;;;;;;10.38;1.92;;;;;;;;;;4960189;28;20059;-67